Time;durP1;ratioP1;P1;durP2;ratioP2;P2;SDS_P1;SDS_P2;PMS_P1;PMS_P2;Temp;Humidity;BMP_temperature;BMP_pressure;BME280_temperature;BME280_humidity;BME280_pressure;Samples;Min_cycle;Max_cycle;Signal;HPM_P1;HPM_P2
2021/12/12 00:02:07;;;;;;;60.10;29.30;;;;;;;-0.95;86.73;101086.98;88047;1276;99781;-68
2021/12/12 00:04:32;;;;;;;57.30;29.90;;;;;;;-0.94;86.59;101091.13;88003;1282;88897;-68
2021/12/12 00:06:47;;;;;;;58.90;30.70;;;;;;;-0.94;86.61;101092.23;87791;1283;93022;-65
2021/12/12 00:09:05;;;;;;;63.70;34.10;;;;;;;-0.93;86.52;101092.48;87823;1284;79652;-66
2021/12/12 00:11:25;;;;;;;63.00;33.30;;;;;;;-0.94;86.18;101093.43;87947;1282;82240;-66
2021/12/12 00:13:43;;;;;;;64.50;30.80;;;;;;;-0.99;86.30;101093.94;88053;1282;99352;-65
2021/12/12 00:15:52;;;;;;;65.30;33.20;;;;;;;-1.04;86.24;101102.73;88018;1280;86767;-65
2021/12/12 00:18:01;;;;;;;61.00;30.50;;;;;;;-1.09;86.22;101103.08;88014;1282;95655;-65
2021/12/12 00:20:15;;;;;;;60.80;31.00;;;;;;;-1.16;86.29;101103.89;88072;1282;80034;-65
2021/12/12 00:22:27;;;;;;;;;;;;;;;-1.23;86.34;101107.53;88034;1282;82603;-66
2021/12/12 00:24:36;;;;;;;59.10;31.10;;;;;;;-1.21;86.51;101106.83;88036;1282;98886;-66
2021/12/12 00:26:49;;;;;;;60.40;30.00;;;;;;;-1.18;86.14;101106.55;88026;1282;88362;-66
2021/12/12 00:29:02;;;;;;;58.80;29.50;;;;;;;-1.18;86.60;101104.73;88052;1281;95725;-66
2021/12/12 00:31:17;;;;;;;57.60;29.50;;;;;;;-1.25;86.26;101106.03;88045;1280;78929;-65
2021/12/12 00:33:28;;;;;;;58.90;30.90;;;;;;;-1.22;86.55;101104.81;88038;1285;81769;-65
2021/12/12 00:35:45;;;;;;;63.60;31.00;;;;;;;-1.16;86.37;101103.90;88009;1282;99473;-65
2021/12/12 00:38:05;;;;;;;60.60;31.70;;;;;;;-1.15;86.24;101104.21;88040;1282;87883;-65
2021/12/12 00:40:24;;;;;;;65.70;33.60;;;;;;;-1.18;86.32;101106.30;88036;1285;95283;-66
2021/12/12 00:42:40;;;;;;;60.90;32.00;;;;;;;-1.21;86.66;101107.73;88045;1278;76732;-65
2021/12/12 00:44:53;;;;;;;66.90;33.10;;;;;;;-1.23;86.76;101104.86;88048;1279;82049;-65
2021/12/12 00:47:11;;;;;;;65.10;33.80;;;;;;;-1.26;86.58;101105.03;88012;1282;100107;-65
2021/12/12 00:49:21;;;;;;;68.30;33.60;;;;;;;-1.29;86.75;101104.36;88020;1285;88429;-65
2021/12/12 00:51:37;;;;;;;70.10;34.50;;;;;;;-1.32;86.77;101107.55;88009;1282;94547;-66
2021/12/12 00:53:47;;;;;;;69.30;33.40;;;;;;;-1.31;86.79;101108.55;87942;1285;81147;-65
2021/12/12 00:55:58;;;;;;;74.60;35.10;;;;;;;-1.31;86.93;101112.79;88068;1282;81074;-66
2021/12/12 00:58:15;;;;;;;80.50;36.60;;;;;;;-1.25;87.08;101110.13;88008;1280;97700;-67
2021/12/12 01:00:36;;;;;;;68.70;32.20;;;;;;;-1.18;87.03;101108.82;88023;1282;89376;-66
2021/12/12 01:02:49;;;;;;;67.70;32.20;;;;;;;-1.13;86.96;101110.80;88001;1280;93284;-66
2021/12/12 01:05:08;;;;;;;71.10;33.20;;;;;;;-1.10;86.94;101112.16;88034;1282;77225;-66
2021/12/12 01:07:26;;;;;;;64.90;32.20;;;;;;;-1.11;86.75;101113.81;88032;1280;82473;-65
2021/12/12 01:09:42;;;;;;;70.80;32.70;;;;;;;-1.09;86.78;101114.21;88042;1282;99814;-67
2021/12/12 01:11:57;;;;;;;68.30;32.70;;;;;;;-1.07;86.84;101116.77;88015;1285;88833;-65
2021/12/12 01:14:13;;;;;;;63.20;32.40;;;;;;;-1.07;86.93;101115.19;88023;1285;94159;-66
2021/12/12 01:16:28;;;;;;;69.50;31.40;;;;;;;-1.09;86.68;101104.38;88034;1282;80242;-66
2021/12/12 01:18:55;;;;;;;78.50;35.30;;;;;;;-1.15;86.80;101099.98;88037;1282;82349;-67
2021/12/12 01:21:13;;;;;;;72.40;32.60;;;;;;;-1.24;86.96;101101.71;88045;1282;98408;-65
2021/12/12 01:23:28;;;;;;;70.60;33.30;;;;;;;-1.26;86.79;101103.80;87841;1286;89423;-65
2021/12/12 01:25:44;;;;;;;69.70;32.10;;;;;;;-1.26;87.04;101105.77;88016;1280;94698;-65
2021/12/12 01:27:55;;;;;;;69.10;30.70;;;;;;;-1.21;87.10;101103.34;88022;1280;79566;-66
2021/12/12 01:30:07;;;;;;;72.10;31.70;;;;;;;-1.15;87.19;101100.66;88046;1282;82303;-68
2021/12/12 01:32:26;;;;;;;69.70;33.00;;;;;;;-1.11;87.06;101102.55;88065;1285;97998;-66
2021/12/12 01:34:39;;;;;;;64.40;33.30;;;;;;;-1.10;87.04;101105.13;88047;1285;87810;-66
2021/12/12 01:37:06;;;;;;;65.40;33.60;;;;;;;-1.11;86.83;101104.82;88002;1285;95274;-66
2021/12/12 01:39:31;;;;;;;74.40;32.90;;;;;;;-1.08;87.05;101102.48;88008;1285;76255;-65
2021/12/12 01:41:48;;;;;;;69.60;33.30;;;;;;;-1.13;87.11;101103.16;88070;1285;82658;-65
2021/12/12 01:44:07;;;;;;;73.00;35.20;;;;;;;-1.15;87.19;101107.04;87824;1286;100121;-65
2021/12/12 01:46:26;;;;;;;68.60;30.90;;;;;;;-1.17;87.25;101112.81;88034;1285;88554;-65
2021/12/12 01:48:46;;;;;;;75.10;33.30;;;;;;;-1.21;86.91;101114.83;88018;1282;94925;-66
2021/12/12 01:51:03;;;;;;;69.00;32.50;;;;;;;-1.22;86.80;101111.14;88027;1282;78895;-65
2021/12/12 01:53:22;;;;;;;69.40;33.30;;;;;;;-1.22;86.83;101113.83;87949;1282;82346;-66
2021/12/12 01:55:36;;;;;;;69.60;33.80;;;;;;;-1.22;86.84;101109.05;88018;1280;99593;-65
2021/12/12 01:57:46;;;;;;;74.60;35.30;;;;;;;-1.21;86.81;101104.04;88001;1280;87327;-65
2021/12/12 02:00:01;;;;;;;73.70;34.30;;;;;;;-1.20;87.09;101101.83;88027;1285;95734;-65
2021/12/12 02:02:16;;;;;;;67.80;31.60;;;;;;;-1.19;86.97;101099.86;88022;1286;77719;-68
2021/12/12 02:04:32;;;;;;;72.00;33.80;;;;;;;-1.18;87.00;101099.45;87730;1281;82161;-68
2021/12/12 02:06:46;;;;;;;71.10;35.40;;;;;;;-1.15;87.12;101103.67;87938;1282;98653;-68
2021/12/12 02:08:57;;;;;;;71.10;34.00;;;;;;;-1.18;87.42;101108.96;88054;1282;89186;-69
2021/12/12 02:11:17;;;;;;;77.30;35.50;;;;;;;-1.21;87.36;101105.83;88011;1273;93459;-65
2021/12/12 02:13:30;;;;;;;76.20;36.10;;;;;;;-1.24;87.27;101103.90;88035;1286;78997;-65
2021/12/12 02:15:46;;;;;;;74.60;33.50;;;;;;;-1.26;87.05;101102.61;87939;1289;80552;-65
2021/12/12 02:17:55;;;;;;;77.70;36.10;;;;;;;-1.26;87.13;101105.95;88033;1282;99724;-65
2021/12/12 02:20:20;;;;;;;79.40;35.90;;;;;;;-1.27;87.29;101110.05;88031;1281;86764;-65
2021/12/12 02:22:45;;;;;;;75.00;35.20;;;;;;;-1.23;87.50;101113.70;88024;1280;94239;-65
2021/12/12 02:35:20;;;;;;;77.00;36.20;;;;;;;-1.11;87.49;101116.46;87796;1282;95841;-66
2021/12/12 02:37:33;;;;;;;77.50;34.30;;;;;;;-1.05;87.14;101119.30;87994;1282;78022;-67
2021/12/12 02:39:46;;;;;;;83.50;34.70;;;;;;;-1.04;87.20;101130.02;88041;1276;82999;-66
2021/12/12 02:42:05;;;;;;;79.20;35.90;;;;;;;-1.05;86.95;101131.13;88034;1285;98731;-67
2021/12/12 02:44:15;;;;;;;80.50;36.30;;;;;;;-1.12;87.04;101129.80;88045;1285;88980;-66
2021/12/12 02:46:34;;;;;;;77.70;34.70;;;;;;;-1.19;87.13;101131.48;88035;1282;95236;-66
2021/12/12 02:48:53;;;;;;;73.20;33.90;;;;;;;-1.21;87.08;101132.12;87944;1285;78916;-66
2021/12/12 02:51:08;;;;;;;81.50;35.20;;;;;;;-1.22;87.07;101135.54;87867;1285;81628;-67
2021/12/12 02:53:27;;;;;;;73.80;33.70;;;;;;;-1.22;86.88;101136.06;87842;1282;99233;-66
2021/12/12 02:55:43;;;;;;;79.00;34.60;;;;;;;-1.19;87.27;101137.15;87842;1285;88821;-65
2021/12/12 02:57:57;;;;;;;72.70;33.10;;;;;;;-1.17;87.27;101142.64;87879;1284;94899;-65
2021/12/12 03:00:11;;;;;;;78.70;35.60;;;;;;;-1.09;87.39;101144.64;87879;1282;80052;-66
2021/12/12 03:02:28;;;;;;;78.60;35.10;;;;;;;-1.03;87.37;101148.16;87914;1286;82274;-69
2021/12/12 03:04:38;;;;;;;78.30;36.10;;;;;;;-1.00;87.33;101146.88;87733;1278;98256;-68
2021/12/12 03:06:47;;;;;;;81.70;34.40;;;;;;;-0.96;87.18;101151.00;87855;1284;86766;-66
2021/12/12 03:09:05;;;;;;;82.00;36.20;;;;;;;-0.94;86.97;101151.80;87906;1286;95424;-67
2021/12/12 03:11:14;;;;;;;72.60;34.40;;;;;;;-1.01;87.00;101152.07;87908;1282;79633;-67
2021/12/12 03:13:26;;;;;;;83.00;36.90;;;;;;;-1.02;87.17;101154.08;87892;1282;82054;-67
2021/12/12 03:15:39;;;;;;;78.90;34.60;;;;;;;-1.08;87.07;101153.21;87894;1282;99676;-67
2021/12/12 03:17:52;;;;;;;82.10;33.70;;;;;;;-1.10;87.08;101154.09;87871;1288;86705;-67
2021/12/12 03:20:11;;;;;;;76.50;35.30;;;;;;;-1.09;87.45;101155.04;87885;1286;94419;-67
2021/12/12 03:22:21;;;;;;;77.30;34.10;;;;;;;-1.09;87.34;101154.38;87695;1288;79032;-65
2021/12/12 03:24:34;;;;;;;78.50;35.30;;;;;;;-1.09;87.25;101152.59;87905;1283;80593;-66
2021/12/12 03:26:48;;;;;;;67.80;32.10;;;;;;;-1.03;87.39;101149.70;87719;1284;99742;-65
2021/12/12 03:29:01;;;;;;;72.50;32.40;;;;;;;-0.97;87.38;101151.30;87871;1282;88866;-64
2021/12/12 03:31:16;;;;;;;67.40;31.40;;;;;;;-0.92;87.29;101145.31;87900;1274;94395;-67
2021/12/12 03:33:31;;;;;;;62.30;28.80;;;;;;;-0.88;87.18;101146.81;87877;1286;78040;-66
2021/12/12 03:35:46;;;;;;;61.50;31.30;;;;;;;-0.94;86.80;101155.48;87879;1279;80479;-66
2021/12/12 03:37:59;;;;;;;67.20;31.70;;;;;;;-0.97;87.11;101155.87;87861;1285;99708;-68
2021/12/12 03:40:17;;;;;;;68.70;30.70;;;;;;;-1.00;87.22;101148.81;87901;1282;87119;-65
2021/12/12 03:42:33;;;;;;;68.70;31.10;;;;;;;-1.01;87.22;101147.27;87874;1286;93476;-69
2021/12/12 03:44:48;;;;;;;64.30;30.40;;;;;;;-1.02;87.20;101149.13;87877;1286;79216;-67
2021/12/12 03:47:03;;;;;;;70.30;31.00;;;;;;;-1.04;87.20;101150.33;87844;1274;82198;-65
2021/12/12 03:49:16;;;;;;;74.60;32.60;;;;;;;-1.05;87.30;101152.36;87929;1287;98037;-66
2021/12/12 03:51:28;;;;;;;60.80;27.30;;;;;;;-1.03;87.28;101154.69;88017;1285;88597;-64
2021/12/12 03:53:40;;;;;;;71.20;31.00;;;;;;;-1.00;87.34;101153.77;87922;1285;95651;-65
2021/12/12 03:55:53;;;;;;;73.30;31.60;;;;;;;-0.95;87.44;101155.37;87842;1280;81420;-65
2021/12/12 03:58:07;;;;;;;73.50;32.90;;;;;;;-0.93;87.64;101154.51;87921;1283;81425;-65
2021/12/12 04:00:27;;;;;;;66.40;31.80;;;;;;;-0.83;87.38;101152.14;88013;1282;98874;-65
2021/12/12 04:02:37;;;;;;;60.60;30.70;;;;;;;-0.74;87.14;101155.09;88000;1282;88696;-67
2021/12/12 04:04:49;;;;;;;64.20;33.40;;;;;;;-0.76;87.03;101154.85;88031;1284;93314;-67
2021/12/12 04:07:00;;;;;;;65.90;32.80;;;;;;;-0.82;87.16;101156.34;88042;1282;79012;-66
2021/12/12 04:09:12;;;;;;;65.30;32.90;;;;;;;-0.87;87.40;101157.83;87863;1286;84854;-66
2021/12/12 04:11:25;;;;;;;65.00;32.80;;;;;;;-0.93;87.38;101161.45;88023;1285;99227;-65
2021/12/12 04:13:40;;;;;;;66.20;34.90;;;;;;;-0.98;87.34;101168.63;88041;1281;88966;-66
2021/12/12 04:15:53;;;;;;;70.20;33.40;;;;;;;-1.02;87.15;101172.42;88038;1285;93573;-66
2021/12/12 04:18:03;;;;;;;59.60;29.50;;;;;;;-1.01;87.35;101174.19;88033;1286;80144;-66
2021/12/12 04:20:21;;;;;;;57.70;30.20;;;;;;;-1.04;87.29;101182.31;87937;1282;81852;-67
2021/12/12 04:22:36;;;;;;;70.80;34.80;;;;;;;-1.02;87.26;101185.58;88019;1280;99395;-66
2021/12/12 04:24:51;;;;;;;66.00;32.70;;;;;;;-1.02;87.37;101189.62;88012;1285;89059;-66
2021/12/12 04:27:06;;;;;;;63.40;32.00;;;;;;;-1.01;87.26;101195.02;87851;1286;97446;-67
2021/12/12 04:29:16;;;;;;;;;;;;;;;-1.00;87.40;101200.43;87999;1285;79231;-66
2021/12/12 04:31:25;;;;;;;61.00;32.10;;;;;;;-1.01;87.26;101203.66;87937;1289;82450;-66
2021/12/12 04:33:38;;;;;;;61.80;32.70;;;;;;;-0.96;87.23;101204.98;88045;1281;100453;-66
2021/12/12 04:35:50;;;;;;;61.40;31.00;;;;;;;-0.93;87.32;101210.61;88034;1280;89559;-65
2021/12/12 04:38:02;;;;;;;66.30;31.50;;;;;;;-0.88;87.52;101214.36;88007;1285;94839;-65
2021/12/12 04:40:20;;;;;;;61.00;33.60;;;;;;;-0.86;87.30;101221.25;88003;1286;78195;-66
2021/12/12 04:42:37;;;;;;;69.70;34.40;;;;;;;-0.83;87.23;101221.81;88031;1281;82933;-67
2021/12/12 04:44:52;;;;;;;71.60;34.80;;;;;;;-0.84;87.08;101220.64;88033;1281;96747;-68
2021/12/12 04:49:57;;;;;;;71.80;34.40;;;;;;;-0.92;87.26;101229.27;88015;1283;93857;-64
2021/12/12 04:52:11;;;;;;;71.20;36.50;;;;;;;-0.97;87.17;101236.85;87997;1286;80712;-68
2021/12/12 04:54:33;;;;;;;71.90;35.10;;;;;;;-1.01;87.04;101237.79;88024;1288;80102;-68
2021/12/12 04:56:55;;;;;;;70.50;33.40;;;;;;;-1.02;87.41;101241.95;88007;1286;99972;-69
2021/12/12 04:59:13;;;;;;;72.80;34.10;;;;;;;-0.99;87.38;101246.00;87992;1280;87498;-70
2021/12/12 05:01:29;;;;;;;68.90;33.20;;;;;;;-0.95;87.41;101239.53;87870;1283;97265;-69
2021/12/12 05:03:48;;;;;;;64.00;32.60;;;;;;;-0.91;87.18;101243.88;88024;1287;77392;-69
2021/12/12 05:06:04;;;;;;;63.50;34.90;;;;;;;-0.98;87.36;101247.36;88018;1281;81761;-68
2021/12/12 05:08:22;;;;;;;69.90;37.10;;;;;;;-0.98;87.53;101246.28;88001;1274;97822;-69
2021/12/12 05:10:41;;;;;;;69.70;35.90;;;;;;;-0.99;87.35;101243.33;88045;1286;87986;-69
2021/12/12 05:12:56;;;;;;;70.00;37.40;;;;;;;-1.02;87.32;101245.98;88033;1281;93899;-69
2021/12/12 05:15:11;;;;;;;68.10;38.20;;;;;;;-1.06;87.26;101241.83;88001;1286;77352;-70
2021/12/12 05:17:29;;;;;;;69.20;36.80;;;;;;;-1.06;87.40;101247.16;86698;1286;1772045;-71
2021/12/12 05:19:43;;;;;;;75.20;37.60;;;;;;;-1.12;87.23;101250.13;88029;1286;99635;-68
2021/12/12 05:21:58;;;;;;;72.40;38.20;;;;;;;-1.12;87.58;101250.89;88025;1278;88345;-68
2021/12/12 05:24:14;;;;;;;73.00;38.10;;;;;;;-1.09;87.37;101253.02;88003;1286;94585;-67
2021/12/12 05:26:30;;;;;;;72.80;37.90;;;;;;;-1.08;87.27;101253.11;88005;1286;79513;-68
2021/12/12 05:28:48;;;;;;;72.10;36.50;;;;;;;-1.04;87.13;101250.91;88019;1279;82973;-69
2021/12/12 05:31:00;;;;;;;73.70;38.90;;;;;;;-0.97;87.65;101250.66;88012;1277;99434;-69
2021/12/12 05:33:16;;;;;;;67.40;35.60;;;;;;;-0.92;87.43;101249.06;88027;1281;88610;-70
2021/12/12 05:35:32;;;;;;;67.90;37.90;;;;;;;-0.87;87.54;101254.42;88020;1283;95306;-68
2021/12/12 05:37:47;;;;;;;82.60;40.30;;;;;;;-0.85;87.51;101253.95;87992;1286;78636;-67
2021/12/12 05:40:11;;;;;;;80.20;40.50;;;;;;;-0.83;87.55;101257.73;88030;1283;82493;-66
2021/12/12 05:42:21;;;;;;;79.90;40.20;;;;;;;-0.87;87.16;101257.74;88023;1286;100285;-70
2021/12/12 05:44:33;;;;;;;72.40;39.80;;;;;;;-0.86;87.29;101257.20;88015;1285;89029;-70
2021/12/12 05:46:42;;;;;;;76.60;40.10;;;;;;;-0.89;87.42;101255.04;87988;1286;94941;-66
2021/12/12 05:48:53;;;;;;;72.40;38.30;;;;;;;-0.87;87.34;101259.86;87981;1286;78754;-67
2021/12/12 05:51:06;;;;;;;72.40;37.20;;;;;;;-0.86;87.22;101265.48;88028;1283;79756;-66
2021/12/12 05:53:17;;;;;;;71.20;38.10;;;;;;;-0.85;87.20;101268.98;87998;1284;97365;-66
2021/12/12 05:55:30;;;;;;;69.70;38.20;;;;;;;-0.88;87.28;101273.21;88006;1285;88619;-67
2021/12/12 05:57:43;;;;;;;81.20;39.10;;;;;;;-0.85;87.21;101272.70;88010;1284;95890;-69
2021/12/12 05:59:56;;;;;;;76.10;37.30;;;;;;;-0.82;87.32;101274.80;87910;1286;80058;-69
2021/12/12 06:02:11;;;;;;;74.20;37.60;;;;;;;-0.80;87.32;101279.05;88013;1286;82891;-69
2021/12/12 06:04:21;;;;;;;68.50;36.00;;;;;;;-0.85;87.17;101286.83;88018;1282;100582;-69
2021/12/12 06:06:40;;;;;;;74.70;38.60;;;;;;;-0.87;87.29;101293.11;88001;1284;88998;-70
2021/12/12 06:08:56;;;;;;;78.60;39.10;;;;;;;-0.93;87.15;101299.34;87991;1278;95748;-70
2021/12/12 06:11:06;;;;;;;79.90;39.90;;;;;;;-0.99;86.95;101301.81;88030;1286;77992;-67
2021/12/12 06:13:20;;;;;;;85.10;41.60;;;;;;;-0.98;87.39;101300.52;88022;1284;83644;-66
2021/12/12 06:15:31;;;;;;;84.00;41.80;;;;;;;-0.97;87.12;101297.98;88010;1288;99235;-67
2021/12/12 06:17:44;;;;;;;79.30;39.20;;;;;;;-0.98;87.29;101303.70;87926;1282;88028;-70
2021/12/12 06:19:54;;;;;;;78.80;40.30;;;;;;;-0.98;87.09;101308.16;87988;1286;94024;-71
2021/12/12 06:22:04;;;;;;;83.10;39.40;;;;;;;-0.97;87.14;101306.33;87979;1287;79086;-68
2021/12/12 06:24:19;;;;;;;78.00;38.10;;;;;;;-0.94;87.15;101299.19;88027;1287;82940;-70
2021/12/12 06:26:28;;;;;;;72.70;37.20;;;;;;;-0.90;87.31;101303.02;87994;1281;99473;-72
2021/12/12 06:28:43;;;;;;;70.90;36.20;;;;;;;-0.89;87.05;101300.33;88038;1280;87382;-68
2021/12/12 06:30:57;;;;;;;76.60;37.90;;;;;;;-0.87;87.14;101303.73;87976;1281;93218;-67
2021/12/12 06:33:07;;;;;;;72.60;37.50;;;;;;;-0.87;86.97;101305.70;87969;1286;77224;-68
2021/12/12 06:35:18;;;;;;;93.10;42.50;;;;;;;-0.82;87.14;101306.96;87991;1286;83324;-66
2021/12/12 06:37:28;;;;;;;108.50;44.30;;;;;;;-0.77;87.00;101306.48;87922;1286;98889;-65
2021/12/12 06:39:42;;;;;;;129.30;51.80;;;;;;;-0.75;87.10;101303.52;87913;1286;88819;-66
2021/12/12 06:41:55;;;;;;;134.80;53.60;;;;;;;-0.75;86.94;101308.29;88020;1286;94768;-67
2021/12/12 06:44:08;;;;;;;140.80;53.60;;;;;;;-0.81;86.94;101311.30;88031;1283;78767;-65
2021/12/12 06:46:19;;;;;;;134.70;52.50;;;;;;;-0.86;87.19;101310.38;87940;1283;81803;-66
2021/12/12 06:48:29;;;;;;;152.00;56.70;;;;;;;-0.89;86.99;101309.88;87983;1283;97908;-68
2021/12/12 06:50:42;;;;;;;147.70;56.40;;;;;;;-0.91;86.69;101313.38;88036;1286;88746;-67
2021/12/12 06:52:57;;;;;;;138.30;52.30;;;;;;;-0.89;86.80;101316.97;87976;1281;95939;-69
2021/12/12 06:55:10;;;;;;;141.70;53.80;;;;;;;-0.92;86.99;101318.20;87891;1286;80591;-67
2021/12/12 06:57:23;;;;;;;138.80;54.40;;;;;;;-0.88;86.80;101317.27;88046;1282;82068;-66
2021/12/12 06:59:35;;;;;;;139.70;52.20;;;;;;;-0.88;86.79;101313.18;87918;1283;99693;-66
2021/12/12 07:01:49;;;;;;;136.00;52.10;;;;;;;-0.91;87.05;101313.55;88060;1281;90217;-65
2021/12/12 07:04:02;;;;;;;139.10;53.70;;;;;;;-0.95;86.94;101311.30;87993;1283;94739;-66
2021/12/12 07:06:13;;;;;;;144.10;54.50;;;;;;;-0.93;86.95;101319.33;88008;1283;77244;-66
2021/12/12 07:08:24;;;;;;;141.70;55.90;;;;;;;-0.96;87.20;101325.33;87993;1278;81083;-66
2021/12/12 07:10:36;;;;;;;141.90;52.00;;;;;;;-0.97;87.27;101333.36;88023;1285;97602;-67
2021/12/12 07:12:53;;;;;;;143.00;54.00;;;;;;;-0.94;87.08;101332.81;87993;1284;88520;-67
2021/12/12 07:15:09;;;;;;;144.80;53.70;;;;;;;-0.94;87.15;101330.52;87984;1277;93907;-66
2021/12/12 07:17:19;;;;;;;153.20;55.80;;;;;;;-0.92;86.90;101328.28;87991;1284;80743;-67
2021/12/12 07:19:32;;;;;;;154.60;57.70;;;;;;;-0.88;86.66;101332.07;88011;1280;81175;-67
2021/12/12 07:21:44;;;;;;;152.10;55.20;;;;;;;-0.88;86.98;101335.45;88010;1282;98274;-67
2021/12/12 07:23:58;;;;;;;149.00;58.30;;;;;;;-0.81;86.88;101344.40;88006;1285;89462;-66
2021/12/12 07:26:13;;;;;;;155.30;60.30;;;;;;;-0.78;86.86;101346.16;88005;1285;95988;-66
2021/12/12 07:28:22;;;;;;;155.80;60.10;;;;;;;-0.74;86.93;101346.92;87970;1285;76839;-66
2021/12/12 07:30:35;;;;;;;148.50;59.30;;;;;;;-0.72;86.75;101353.69;88018;1285;81980;-67
2021/12/12 07:32:48;;;;;;;153.40;60.20;;;;;;;-0.75;86.90;101359.02;88002;1285;99460;-67
2021/12/12 07:34:57;;;;;;;157.90;59.00;;;;;;;-0.76;86.80;101358.92;88012;1282;88463;-67
2021/12/12 07:37:11;;;;;;;144.60;54.00;;;;;;;-0.79;86.69;101357.32;87981;1286;94495;-68
2021/12/12 07:39:28;;;;;;;141.10;54.70;;;;;;;-0.83;86.88;101352.30;88003;1283;80895;-68
2021/12/12 07:41:43;;;;;;;147.50;54.40;;;;;;;-0.86;86.87;101354.95;88023;1282;81674;-67
2021/12/12 07:43:59;;;;;;;146.20;54.90;;;;;;;-0.84;87.07;101354.47;87959;1285;99672;-69
2021/12/12 07:46:11;;;;;;;144.90;55.20;;;;;;;-0.79;87.21;101360.90;87993;1283;88208;-65
2021/12/12 07:48:20;;;;;;;141.00;56.90;;;;;;;-0.73;86.67;101365.80;87964;1286;95294;-65
2021/12/12 07:50:31;;;;;;;132.50;54.30;;;;;;;-0.65;86.93;101366.36;87966;1282;79170;-67
2021/12/12 07:52:40;;;;;;;133.10;55.80;;;;;;;-0.58;86.74;101365.05;88019;1282;82511;-69
2021/12/12 07:54:52;;;;;;;143.40;57.80;;;;;;;-0.55;86.81;101366.12;87917;1281;99253;-68
2021/12/12 07:57:05;;;;;;;160.70;62.80;;;;;;;-0.52;86.91;101366.61;87963;1285;88650;-69
2021/12/12 07:59:18;;;;;;;157.60;60.90;;;;;;;-0.46;86.49;101370.68;87989;1282;95777;-71
2021/12/12 08:01:27;;;;;;;159.00;61.60;;;;;;;-0.46;86.38;101368.92;88019;1285;77732;-69
2021/12/12 08:03:39;;;;;;;184.70;69.90;;;;;;;-0.55;86.47;101370.39;87997;1280;81337;-67
2021/12/12 08:05:49;;;;;;;176.30;67.10;;;;;;;-0.63;86.49;101377.71;87990;1285;99731;-69
2021/12/12 08:08:01;;;;;;;175.30;66.70;;;;;;;-0.66;86.44;101379.54;88033;1283;89311;-70
2021/12/12 08:10:15;;;;;;;178.20;69.70;;;;;;;-0.76;86.24;101379.06;88000;1282;94258;-70
2021/12/12 08:12:25;;;;;;;;;;;;;;;-0.78;85.95;101387.19;87994;1283;79350;-69
2021/12/12 08:14:38;;;;;;;168.70;64.10;;;;;;;-0.81;86.36;101391.98;87958;1286;80559;-69
2021/12/12 08:16:49;;;;;;;163.90;59.40;;;;;;;-0.81;86.22;101402.05;87982;1280;98216;-69
2021/12/12 08:19:01;;;;;;;164.30;65.50;;;;;;;-0.80;86.21;101398.05;88007;1282;89184;-70
2021/12/12 08:21:13;;;;;;;158.70;65.70;;;;;;;-0.73;86.43;101392.70;88015;1282;94052;-72
2021/12/12 08:23:27;;;;;;;122.80;50.90;;;;;;;-0.68;85.95;101397.48;87817;1285;79124;-69
2021/12/12 08:25:38;;;;;;;163.20;69.20;;;;;;;-0.66;86.29;101401.79;88013;1285;79749;-69
2021/12/12 08:27:53;;;;;;;174.40;69.70;;;;;;;-0.66;86.47;101396.33;88022;1281;99047;-68
2021/12/12 08:30:07;;;;;;;192.00;76.00;;;;;;;-0.62;86.29;101401.20;88041;1282;87240;-68
2021/12/12 08:32:18;;;;;;;200.70;83.00;;;;;;;-0.69;86.22;101410.52;88008;1279;92594;-69
2021/12/12 08:34:32;;;;;;;194.10;80.70;;;;;;;-0.76;86.17;101413.20;87979;1282;80946;-69
2021/12/12 08:36:42;;;;;;;;;;;;;;;-0.82;86.12;101412.01;88026;1282;83014;-70
2021/12/12 08:38:52;;;;;;;194.60;80.70;;;;;;;-0.87;86.09;101414.43;87988;1285;98245;-68
2021/12/12 08:41:05;;;;;;;190.20;78.40;;;;;;;-0.89;85.85;101414.53;88014;1282;88021;-70
2021/12/12 08:43:17;;;;;;;186.80;75.80;;;;;;;-0.86;85.85;101410.68;87974;1282;93413;-70
2021/12/12 08:45:33;;;;;;;167.40;74.40;;;;;;;-0.87;86.07;101415.11;88018;1281;78346;-70
2021/12/12 08:47:43;;;;;;;167.90;74.60;;;;;;;-0.87;85.79;101416.02;88039;1286;80472;-68
2021/12/12 08:49:53;;;;;;;175.70;73.00;;;;;;;-0.88;86.01;101425.26;88011;1282;99642;-69
2021/12/12 08:52:08;;;;;;;166.60;71.90;;;;;;;-0.88;85.91;101421.17;88010;1281;88724;-68
2021/12/12 08:54:26;;;;;;;179.70;77.30;;;;;;;-0.86;85.81;101419.88;87981;1282;95799;-68
2021/12/12 08:56:44;;;;;;;174.20;75.50;;;;;;;-0.90;86.12;101425.59;87957;1283;78413;-67
2021/12/12 08:58:58;;;;;;;182.10;82.50;;;;;;;-0.94;85.73;101426.37;87986;1285;84492;-68
2021/12/12 09:01:11;;;;;;;178.50;78.70;;;;;;;-0.97;85.78;101421.73;88026;1282;99705;-67
2021/12/12 09:03:29;;;;;;;173.10;75.60;;;;;;;-1.02;85.81;101418.89;87996;1282;87738;-67
2021/12/12 09:05:45;;;;;;;171.50;70.30;;;;;;;-1.05;85.88;101420.42;87967;1283;95614;-68
2021/12/12 09:08:04;;;;;;;164.10;70.20;;;;;;;-1.05;85.96;101416.58;87906;1285;79075;-70
2021/12/12 09:10:26;;;;;;;171.00;70.20;;;;;;;-1.06;85.88;101416.62;87977;1281;81959;-71
2021/12/12 09:12:42;;;;;;;154.70;69.20;;;;;;;-1.06;85.82;101416.98;87991;1285;99961;-67
2021/12/12 09:14:56;;;;;;;154.10;64.60;;;;;;;-1.04;85.91;101413.88;88014;1286;88801;-68
2021/12/12 09:17:17;;;;;;;154.10;68.70;;;;;;;-1.04;86.05;101414.08;87978;1285;95050;-70
2021/12/12 09:19:35;;;;;;;149.10;69.20;;;;;;;-0.96;85.62;101417.44;88001;1281;77182;-70
2021/12/12 09:21:54;;;;;;;150.70;68.10;;;;;;;-0.97;85.57;101415.91;88006;1282;83367;-68
2021/12/12 09:24:16;;;;;;;157.10;67.30;;;;;;;-1.04;85.59;101412.80;87989;1274;98348;-68
2021/12/12 09:26:27;;;;;;;156.10;70.90;;;;;;;-1.10;85.59;101411.73;87846;1286;88936;-68
2021/12/12 09:28:49;;;;;;;156.90;70.60;;;;;;;-1.07;85.74;101411.56;87962;1286;95972;-68
2021/12/12 09:31:08;;;;;;;144.80;63.90;;;;;;;-1.10;85.56;101410.85;87962;1283;78431;-70
2021/12/12 09:33:25;;;;;;;151.50;62.70;;;;;;;-1.08;85.52;101413.75;87993;1280;81015;-66
2021/12/12 09:35:45;;;;;;;142.70;64.50;;;;;;;-1.08;85.47;101411.13;87990;1283;100334;-65
2021/12/12 09:38:00;;;;;;;136.80;60.30;;;;;;;-1.12;85.32;101413.66;88006;1285;87230;-67
2021/12/12 09:40:36;;;;;;;121.60;56.90;;;;;;;-1.10;85.15;101411.02;87955;1282;94949;-64
2021/12/12 09:43:20;;;;;;;120.70;55.50;;;;;;;-1.11;85.11;101408.48;87981;1274;76728;-65
2021/12/12 09:45:54;;;;;;;129.70;57.50;;;;;;;-1.12;85.38;101403.54;88001;1283;82587;-65
2021/12/12 09:51:46;;;;;;;113.10;52.30;;;;;;;-1.19;85.19;101393.55;87976;1282;88387;-64
2021/12/12 09:54:34;;;;;;;125.40;55.20;;;;;;;-1.24;85.03;101386.43;88003;1285;92551;-65
2021/12/12 09:56:56;;;;;;;114.00;52.90;;;;;;;-1.22;85.68;101385.42;88000;1285;77030;-66
2021/12/12 09:59:17;;;;;;;116.90;52.00;;;;;;;-1.22;85.56;101387.55;87995;1280;80943;-64
2021/12/12 10:01:34;;;;;;;116.60;50.90;;;;;;;-1.24;85.54;101391.91;87985;1280;97252;-63
2021/12/12 10:04:10;;;;;;;111.70;49.90;;;;;;;-1.22;85.50;101387.55;88001;1284;89503;-63
2021/12/12 10:06:35;;;;;;;102.30;46.10;;;;;;;-1.17;85.49;101375.55;87977;1282;94014;-64
2021/12/12 10:09:06;;;;;;;100.10;46.10;;;;;;;-1.16;85.71;101381.37;87967;1280;80476;-64
2021/12/12 10:11:37;;;;;;;100.40;45.70;;;;;;;-1.13;85.57;101386.48;88050;1276;80142;-64
2021/12/12 10:13:58;;;;;;;91.20;43.70;;;;;;;-1.08;85.81;101372.58;88021;1282;99278;-64
2021/12/12 10:16:21;;;;;;;96.40;47.30;;;;;;;-1.02;85.50;101376.63;87984;1283;87692;-66
2021/12/12 10:18:51;;;;;;;101.20;46.70;;;;;;;-0.97;85.36;101374.88;88020;1283;94052;-65
2021/12/12 10:21:10;;;;;;;102.50;47.70;;;;;;;-1.01;85.35;101365.63;88029;1282;77834;-65
2021/12/12 10:23:32;;;;;;;102.10;49.70;;;;;;;-1.02;85.33;101362.33;88013;1280;81504;-64
2021/12/12 10:25:53;;;;;;;108.30;49.60;;;;;;;-1.07;85.35;101358.90;87970;1286;99558;-64
2021/12/12 10:28:20;;;;;;;108.90;50.30;;;;;;;-1.04;85.30;101350.40;87874;1283;89274;-64
2021/12/12 10:30:35;;;;;;;109.90;50.40;;;;;;;-1.07;85.08;101360.66;87978;1285;96011;-67